Pilot Knob, Texas
Current Conditions -  °F | °C
As of 5:53 PM on Wednesday 26 Nov 2014 (Local Time) from KAUS Reporting Station
Clear Clear  
Wind Chill: 67°   Ceiling: Unl
Heat Index: 67°   Visibility: 10mi
Dew Point: 32°   Wind: 0mph
Humidity: 27%   Direction: NA
Pressure: 30.21"   Gusts: NA
Location:  30.1791°N, 97.7294°W
Report Text: KAUS 262353Z 00000KT 10SM CLR 19/00 A3021 RMK AO2 SLP229 T01940000 10244 20172 53019
Loading
Personal Weather Stations






























Interactive Weather Map New forecast layout! Learn more

10-Day Weather Forecast

Advertisements
Track Severe Weather on mobile